| Date | Time | Temp. (oF) | Dew Point (oF) | Rel. Hum. (%) | Press. (in.) | Wind Dir. | Wind Speed (mph) | Hourly Rainfall (in.) |
|
|---|---|---|---|---|---|---|---|---|---|
| 1 | 02/27 | 00:00 | 29 | 26 | 90 | 30.41 | S | 4 | 0.00 |
| 2 | 02/26 | 23:00 | 31 | 26 | 83 | 30.43 | SSW | 0 | 0.00 |
| 3 | 02/26 | 22:00 | 32 | 25 | 78 | 30.43 | SSW | 2 | 0.00 |
| 4 | 02/26 | 21:00 | 33 | 25 | 73 | 30.43 | S | 0 | 0.00 |
| 5 | 02/26 | 20:00 | 35 | 25 | 67 | 30.43 | ESE | 1 | 0.00 |
| 6 | 02/26 | 19:00 | 38 | 24 | 57 | 30.43 | SW | 0 | 0.00 |
| 7 | 02/26 | 18:00 | 41 | 24 | 51 | 30.40 | N | 2 | 0.00 |
| 8 | 02/26 | 17:00 | 44 | 24 | 47 | 30.38 | N | 3 | 0.00 |
| 9 | 02/26 | 16:00 | 43 | 24 | 47 | 30.37 | NNW | 4 | 0.00 |
| 10 | 02/26 | 15:00 | 43 | 25 | 49 | 30.37 | WSW | 7 | 0.00 |
| 11 | 02/26 | 14:00 | 42 | 23 | 48 | 30.40 | N | 6 | 0.00 |
| 12 | 02/26 | 13:00 | 41 | 21 | 46 | 30.42 | N | 6 | 0.00 |
| 13 | 02/26 | 12:00 | 40 | 22 | 49 | 30.44 | NE | 10 | 0.00 |
| 14 | 02/26 | 11:00 | 38 | 21 | 51 | 30.45 | WNW | 6 | 0.00 |
| 15 | 02/26 | 10:00 | 36 | 21 | 55 | 30.45 | N | 6 | 0.00 |
| 16 | 02/26 | 09:00 | 35 | 21 | 58 | 30.45 | W | 9 | 0.00 |
| 17 | 02/26 | 08:00 | 33 | 23 | 67 | 30.43 | WNW | 9 | 0.00 |
| 18 | 02/26 | 07:00 | 32 | 22 | 69 | 30.41 | WNW | 5 | 0.00 |
| 19 | 02/26 | 06:00 | 32 | 21 | 65 | 30.39 | WNW | 8 | 0.00 |
| 20 | 02/26 | 05:00 | 32 | 20 | 61 | 30.35 | WNW | 9 | 0.00 |
| 21 | 02/26 | 04:00 | 32 | 21 | 64 | 30.32 | WSW | 9 | 0.00 |
| 22 | 02/26 | 03:00 | 32 | 21 | 65 | 30.29 | NW | 7 | 0.00 |
| 23 | 02/26 | 02:00 | 31 | 19 | 63 | 30.26 | WSW | 10 | 0.00 |
| 24 | 02/26 | 01:00 | 32 | 21 | 64 | 30.23 | WSW | 9 | 0.00 |